createdAt,value
2019-04-07T00:00:55.373Z,99342.16
2019-04-07T00:03:27.817Z,99349.17
2019-04-07T00:05:59.846Z,99346.56
2019-04-07T00:08:31.745Z,99351.55
2019-04-07T00:11:04.651Z,99346.94
2019-04-07T00:13:36.692Z,99345.40
2019-04-07T00:16:09.783Z,99339.58
2019-04-07T00:18:41.751Z,99349.41
2019-04-07T00:21:13.725Z,99348.84
2019-04-07T00:23:45.659Z,99345.97
2019-04-07T00:26:17.593Z,99350.95
2019-04-07T00:28:49.847Z,99347.73
2019-04-07T00:31:21.805Z,99352.58
2019-04-07T00:33:53.719Z,99358.95
2019-04-07T00:36:25.851Z,99348.89
2019-04-07T00:38:57.779Z,99350.66
2019-04-07T00:41:29.976Z,99355.36
2019-04-07T00:44:02.912Z,99359.03
2019-04-07T00:46:35.538Z,99354.64
2019-04-07T00:49:08.317Z,99356.73
2019-04-07T00:51:41.013Z,99363.25
2019-04-07T00:54:13.223Z,99364.30
2019-04-07T00:56:45.508Z,99370.81
2019-04-07T00:59:18.229Z,99371.97
2019-04-07T01:01:50.416Z,99373.96
2019-04-07T01:04:22.709Z,99382.46
2019-04-07T01:06:54.859Z,99381.94
2019-04-07T01:09:26.890Z,99386.24
2019-04-07T01:11:58.824Z,99393.37
2019-04-07T01:14:31.325Z,99394.89
2019-04-07T01:17:04.296Z,99385.84
2019-04-07T01:19:36.636Z,99386.66
2019-04-07T01:22:09.040Z,99390.63
2019-04-07T01:24:41.054Z,99393.23
2019-04-07T01:27:13.163Z,99388.95
2019-04-07T01:29:46.246Z,99382.52
2019-04-07T01:32:19.206Z,99386.30
2019-04-07T01:34:51.525Z,99387.13
2019-04-07T01:37:24.092Z,99376.29
2019-04-07T01:39:56.206Z,99375.67
2019-04-07T01:42:33.656Z,99371.12
2019-04-07T01:45:31.921Z,99371.67
2019-04-07T01:48:25.736Z,99367.47
2019-04-07T01:51:16.868Z,99363.41
2019-04-07T01:54:13.944Z,99365.20
2019-04-07T01:57:04.503Z,99356.44
2019-04-07T01:59:58.224Z,99356.06
2019-04-07T02:02:49.433Z,99359.78
2019-04-07T02:05:39.227Z,99363.22
2019-04-07T02:08:22.105Z,99369.35
2019-04-07T02:11:15.818Z,99373.94
2019-04-07T02:14:10.172Z,99366.79
2019-04-07T02:16:49.994Z,99366.62
2019-04-07T02:19:47.155Z,99363.41
2019-04-07T02:22:40.910Z,99374.88
2019-04-07T02:25:31.868Z,99368.83
2019-04-07T02:28:28.514Z,99367.55
2019-04-07T02:31:27.469Z,99369.44
2019-04-07T02:34:25.935Z,99368.37
2019-04-07T02:37:22.890Z,99361.25
2019-04-07T02:40:05.137Z,99356.42
2019-04-07T02:42:48.419Z,99353.87
2019-04-07T02:45:30.378Z,99358.95
2019-04-07T02:48:15.356Z,99360.88
2019-04-07T02:51:03.149Z,99358.73
2019-04-07T02:53:45.472Z,99369.00
2019-04-07T02:56:33.800Z,99359.55
2019-04-07T02:59:10.756Z,99358.43
2019-04-07T03:02:08.163Z,99368.14
2019-04-07T03:05:04.797Z,99369.81
2019-04-07T03:07:58.296Z,99373.03
2019-04-07T03:10:47.531Z,99380.09
2019-04-07T03:13:41.925Z,99384.33
2019-04-07T03:16:25.316Z,99383.79
2019-04-07T03:19:11.306Z,99383.45
2019-04-07T03:22:11.216Z,99387.75
2019-04-07T03:25:09.935Z,99381.16
2019-04-07T03:27:51.366Z,99387.95
2019-04-07T03:30:38.569Z,99398.94
2019-04-07T03:33:22.748Z,99397.11
2019-04-07T03:36:06.829Z,99391.83
2019-04-07T03:38:59.439Z,99390.70
2019-04-07T03:41:59.026Z,99394.47
2019-04-07T03:44:53.278Z,99397.27
2019-04-07T03:47:42.429Z,99395.48
2019-04-07T03:50:51.557Z,99399.02
2019-04-07T03:53:42.583Z,99393.16
2019-04-07T03:56:37.197Z,99389.36
2019-04-07T03:59:26.923Z,99387.08
2019-04-07T04:02:12.308Z,99392.08
2019-04-07T04:04:55.644Z,99398.17
2019-04-07T04:07:49.514Z,99383.95
2019-04-07T04:10:40.802Z,99400.50
2019-04-07T04:13:37.935Z,99400.80
2019-04-07T04:16:19.983Z,99415.22
2019-04-07T04:18:52.624Z,99414.00
2019-04-07T04:21:24.517Z,99409.16
2019-04-07T04:23:57.621Z,99410.00
2019-04-07T04:26:29.779Z,99415.36
2019-04-07T04:29:03.681Z,99419.80
2019-04-07T04:31:36.771Z,99421.25
2019-04-07T04:34:09.832Z,99415.90
2019-04-07T04:36:41.929Z,99416.41
2019-04-07T04:39:18.605Z,99424.31
2019-04-07T04:41:48.892Z,99424.02
2019-04-07T04:44:22.441Z,99423.12
2019-04-07T04:46:54.840Z,99425.64
2019-04-07T04:49:27.106Z,99420.80
2019-04-07T04:51:59.065Z,99425.33
2019-04-07T04:54:31.900Z,99423.09
2019-04-07T04:57:06.452Z,99422.95
2019-04-07T04:59:37.543Z,99412.59
2019-04-07T05:02:10.600Z,99414.42
2019-04-07T05:04:44.704Z,99413.73
2019-04-07T05:07:17.054Z,99425.30
2019-04-07T05:09:52.874Z,99422.19
2019-04-07T05:12:23.472Z,99426.06
2019-04-07T05:14:55.966Z,99425.87
2019-04-07T05:17:28.821Z,99427.31
2019-04-07T05:20:01.169Z,99423.07
2019-04-07T05:22:33.369Z,99432.08
2019-04-07T05:25:06.887Z,99430.24
2019-04-07T05:27:39.234Z,99434.77
2019-04-07T05:30:12.319Z,99432.37
2019-04-07T05:32:44.851Z,99437.06
2019-04-07T05:35:17.486Z,99442.08
2019-04-07T05:37:59.964Z,99434.65
2019-04-07T05:40:23.191Z,99421.64
2019-04-07T05:42:55.516Z,99433.75
2019-04-07T05:45:27.977Z,99434.42
2019-04-07T05:48:00.420Z,99444.45
2019-04-07T05:50:32.661Z,99440.95
2019-04-07T05:53:06.836Z,99446.78
2019-04-07T05:55:39.359Z,99452.45
2019-04-07T05:58:11.980Z,99454.76
2019-04-07T06:00:47.021Z,99458.69
2019-04-07T06:03:20.355Z,99449.29
2019-04-07T06:05:52.869Z,99460.56
2019-04-07T06:08:34.039Z,99462.77
2019-04-07T06:11:01.544Z,99464.62
2019-04-07T06:13:35.600Z,99474.53
2019-04-07T06:16:08.024Z,99465.65
2019-04-07T06:18:40.031Z,99467.46
2019-04-07T06:21:14.148Z,99466.80
2019-04-07T06:23:45.581Z,99475.70
2019-04-07T06:26:17.719Z,99479.21
2019-04-07T06:28:54.619Z,99481.62
2019-04-07T06:31:26.319Z,99478.30
2019-04-07T06:33:59.487Z,99476.38
2019-04-07T06:36:31.995Z,99492.45
2019-04-07T06:39:07.192Z,99502.76
2019-04-07T06:41:39.339Z,99497.98
2019-04-07T06:44:13.812Z,99497.86
2019-04-07T06:47:10.003Z,99495.93
2019-04-07T06:50:07.413Z,99494.25
2019-04-07T06:52:56.919Z,99487.47
2019-04-07T06:55:37.014Z,99490.29
2019-04-07T06:58:24.278Z,99495.78
2019-04-07T07:01:15.385Z,99496.92
2019-04-07T07:04:09.264Z,99503.19
2019-04-07T07:07:00.524Z,99505.42
2019-04-07T07:10:00.974Z,99513.39
2019-04-07T07:13:09.334Z,99521.97
2019-04-07T07:15:57.309Z,99526.27
2019-04-07T07:18:40.911Z,99530.89
2019-04-07T07:21:36.336Z,99527.17
2019-04-07T07:24:06.180Z,99531.16
2019-04-07T07:26:38.573Z,99535.66
2019-04-07T07:29:13.243Z,99539.52
2019-04-07T07:31:44.867Z,99535.14
2019-04-07T07:34:18.727Z,99532.69
2019-04-07T07:36:53.435Z,99531.28
2019-04-07T07:39:25.123Z,99534.03
2019-04-07T07:41:57.078Z,99539.72
2019-04-07T07:44:28.999Z,99534.80
2019-04-07T07:47:01.555Z,99533.12
2019-04-07T07:49:36.112Z,99535.64
2019-04-07T07:52:07.512Z,99528.79
2019-04-07T07:54:39.477Z,99517.02
2019-04-07T07:57:11.421Z,99508.51
2019-04-07T07:59:44.044Z,99504.51
2019-04-07T08:02:19.440Z,99505.97
2019-04-07T08:04:51.077Z,99511.52
2019-04-07T08:07:23.643Z,99514.26
2019-04-07T08:09:56.813Z,99515.45
2019-04-07T08:12:34.435Z,99520.00
2019-04-07T08:15:04.946Z,99520.97
2019-04-07T08:17:37.665Z,99518.72
2019-04-07T08:20:11.367Z,99513.01
2019-04-07T08:22:44.983Z,99513.09
2019-04-07T08:25:20.394Z,99510.55
2019-04-07T08:27:50.907Z,99514.61
2019-04-07T08:30:22.963Z,99516.94
2019-04-07T08:32:57.644Z,99523.27
2019-04-07T08:35:28.882Z,99516.13
2019-04-07T08:38:01.476Z,99520.20
2019-04-07T08:40:36.532Z,99520.30
2019-04-07T08:43:08.261Z,99521.41
2019-04-07T08:45:41.434Z,99524.12
2019-04-07T08:48:13.411Z,99506.44
2019-04-07T08:50:45.372Z,99524.65
2019-04-07T08:53:17.346Z,99520.20
2019-04-07T08:55:52.029Z,99523.55
2019-04-07T08:58:28.431Z,99523.69
2019-04-07T09:00:58.538Z,99527.33
2019-04-07T09:03:31.408Z,99518.87
2019-04-07T09:06:04.576Z,99517.38
2019-04-07T09:08:38.002Z,99514.52
2019-04-07T09:11:13.511Z,99514.25
2019-04-07T09:13:51.547Z,99514.86
2019-04-07T09:16:57.839Z,99509.16
2019-04-07T09:20:00.762Z,99512.22
2019-04-07T09:22:38.920Z,99517.16
2019-04-07T09:25:31.965Z,99523.70
2019-04-07T09:28:25.437Z,99522.75
2019-04-07T09:31:25.607Z,99523.09
2019-04-07T09:34:18.901Z,99520.97
2019-04-07T09:36:57.515Z,99518.02
2019-04-07T09:39:58.447Z,99518.95
2019-04-07T09:42:47.226Z,99514.34
2019-04-07T09:45:39.420Z,99513.42
2019-04-07T09:48:50.038Z,99512.36
2019-04-07T09:51:41.351Z,99519.38
2019-04-07T09:54:30.658Z,99521.78
2019-04-07T09:57:35.484Z,99521.47
2019-04-07T10:00:17.077Z,99523.75
2019-04-07T10:03:26.313Z,99520.05
2019-04-07T10:06:09.859Z,99517.84
2019-04-07T10:09:04.078Z,99518.97
2019-04-07T10:12:04.866Z,99521.63
2019-04-07T10:14:55.269Z,99518.66
2019-04-07T10:17:45.176Z,99510.53
2019-04-07T10:20:35.223Z,99514.06
2019-04-07T10:23:23.166Z,99499.84
2019-04-07T10:26:23.379Z,99516.11
2019-04-07T10:29:00.613Z,99512.61
2019-04-07T10:31:55.343Z,99519.15
2019-04-07T10:34:55.475Z,99527.90
2019-04-07T10:37:45.130Z,99522.93
2019-04-07T10:40:40.043Z,99522.15
2019-04-07T10:43:20.031Z,99520.73
2019-04-07T10:46:13.639Z,99524.03
2019-04-07T10:48:53.662Z,99516.15
2019-04-07T10:51:51.277Z,99521.17
2019-04-07T10:54:41.528Z,99518.95
2019-04-07T10:57:24.869Z,99523.48
2019-04-07T11:00:27.823Z,99531.71
2019-04-07T11:03:23.114Z,99535.59
2019-04-07T11:06:14.954Z,99536.25
2019-04-07T11:09:17.876Z,99540.36
2019-04-07T11:12:12.441Z,99536.43
2019-04-07T11:15:03.210Z,99545.20
2019-04-07T11:18:04.167Z,99541.52
2019-04-07T11:20:48.862Z,99539.14
2019-04-07T11:23:43.354Z,99534.84
2019-04-07T11:26:45.926Z,99528.62
2019-04-07T11:29:45.596Z,99530.95
2019-04-07T11:32:30.759Z,99529.80
2019-04-07T11:35:13.765Z,99525.17
2019-04-07T11:38:14.687Z,99530.14
2019-04-07T11:41:27.221Z,99539.20
2019-04-07T11:44:10.486Z,99534.52
2019-04-07T11:47:03.771Z,99532.68
2019-04-07T11:49:48.522Z,99528.22
2019-04-07T11:52:26.656Z,99522.61
2019-04-07T11:55:10.156Z,99522.84
2019-04-07T11:58:06.672Z,99522.70
2019-04-07T12:00:51.402Z,99512.84
2019-04-07T12:03:40.574Z,99510.53
2019-04-07T12:06:49.911Z,99510.86
2019-04-07T12:09:28.371Z,99507.17
2019-04-07T12:12:18.237Z,99505.84
2019-04-07T12:15:09.554Z,99503.58
2019-04-07T12:18:05.209Z,99506.78
2019-04-07T12:20:48.313Z,99515.53
2019-04-07T12:23:33.658Z,99523.64
2019-04-07T12:26:24.782Z,99531.14
2019-04-07T12:29:22.251Z,99526.45
2019-04-07T12:32:25.985Z,99522.46
2019-04-07T12:35:23.565Z,99521.34
2019-04-07T12:38:13.567Z,99510.34
2019-04-07T12:41:15.029Z,99507.41
2019-04-07T12:44:02.811Z,99509.39
2019-04-07T12:46:46.424Z,99504.86
2019-04-07T12:49:44.473Z,99509.20
2019-04-07T12:52:33.485Z,99513.06
2019-04-07T12:55:26.900Z,99514.69
2019-04-07T12:58:11.658Z,99514.31
2019-04-07T13:01:21.161Z,99512.33
2019-04-07T13:04:21.038Z,99507.39
2019-04-07T13:07:15.103Z,99511.16
2019-04-07T13:10:04.587Z,99510.34
2019-04-07T13:12:57.958Z,99506.95
2019-04-07T13:15:52.045Z,99509.09
2019-04-07T13:18:35.603Z,99506.40
2019-04-07T13:21:46.680Z,99500.44
2019-04-07T13:24:35.646Z,99498.45
2019-04-07T13:27:16.843Z,99499.48
2019-04-07T13:29:54.241Z,99494.47
2019-04-07T13:32:41.630Z,99498.00
2019-04-07T13:35:40.629Z,99494.83
2019-04-07T13:38:38.296Z,99499.98
2019-04-07T13:41:47.579Z,99496.03
2019-04-07T13:44:48.390Z,99495.88
2019-04-07T13:47:27.027Z,99489.67
2019-04-07T13:50:19.798Z,99491.07
2019-04-07T13:53:08.972Z,99474.28
2019-04-07T13:55:49.767Z,99481.40
2019-04-07T13:58:35.070Z,99478.84
2019-04-07T14:01:40.769Z,99476.04
2019-04-07T14:04:32.948Z,99471.60
2019-04-07T14:07:42.736Z,99471.14
2019-04-07T14:10:37.246Z,99465.11
2019-04-07T14:13:28.266Z,99454.73
2019-04-07T14:16:37.711Z,99467.59
2019-04-07T14:19:28.870Z,99452.81
2019-04-07T14:22:29.715Z,99457.11
2019-04-07T14:25:24.585Z,99449.99
2019-04-07T14:28:12.991Z,99448.48
2019-04-07T14:31:07.611Z,99443.09
2019-04-07T14:33:58.927Z,99435.22
2019-04-07T14:36:58.960Z,99435.26
2019-04-07T14:39:39.344Z,99438.91
2019-04-07T14:42:29.438Z,99425.64
2019-04-07T14:45:24.911Z,99415.05
2019-04-07T14:48:09.836Z,99419.28
2019-04-07T14:51:07.234Z,99419.33
2019-04-07T14:54:16.413Z,99422.51
2019-04-07T14:57:09.058Z,99418.05
2019-04-07T14:59:55.397Z,99420.23
2019-04-07T15:02:29.101Z,99424.14
2019-04-07T15:05:13.723Z,99418.56
2019-04-07T15:08:01.285Z,99424.65
2019-04-07T15:10:37.800Z,99416.36
2019-04-07T15:13:13.073Z,99418.08
2019-04-07T15:15:45.050Z,99420.42
2019-04-07T15:18:21.451Z,99427.45
2019-04-07T15:20:57.312Z,99422.56
2019-04-07T15:23:32.283Z,99417.95
2019-04-07T15:26:03.819Z,99421.70
2019-04-07T15:28:35.803Z,99425.94
2019-04-07T15:31:08.576Z,99419.27
2019-04-07T15:33:40.987Z,99416.32
2019-04-07T15:36:13.026Z,99407.11
2019-04-07T15:38:45.558Z,99407.11
2019-04-07T15:41:19.082Z,99408.63
2019-04-07T15:43:52.253Z,99414.99
2019-04-07T15:46:25.697Z,99412.32
2019-04-07T15:48:58.312Z,99406.13
2019-04-07T15:51:34.127Z,99397.62
2019-04-07T15:54:04.400Z,99400.63
2019-04-07T15:56:36.834Z,99391.17
2019-04-07T15:59:09.904Z,99393.28
2019-04-07T16:01:43.084Z,99385.63
2019-04-07T16:04:15.988Z,99378.76
2019-04-07T16:06:50.308Z,99379.95
2019-04-07T16:09:34.624Z,99368.72
2019-04-07T16:11:58.861Z,99367.28
2019-04-07T16:14:30.974Z,99372.73
2019-04-07T16:17:07.284Z,99364.31
2019-04-07T16:19:43.081Z,99368.79
2019-04-07T16:22:14.563Z,99368.79
2019-04-07T16:24:47.544Z,99368.25
2019-04-07T16:27:19.744Z,99371.47
2019-04-07T16:29:54.760Z,99369.86
2019-04-07T16:32:29.111Z,99365.48
2019-04-07T16:35:01.721Z,99362.08
2019-04-07T16:37:34.804Z,99361.73
2019-04-07T16:40:11.454Z,99370.86
2019-04-07T16:42:54.546Z,99370.11
2019-04-07T16:45:17.961Z,99366.27
2019-04-07T16:47:51.548Z,99380.34
2019-04-07T16:50:23.672Z,99382.52
2019-04-07T16:52:55.893Z,99357.23
2019-04-07T16:55:37.359Z,99363.51
2019-04-07T16:58:10.310Z,99369.97
2019-04-07T17:00:42.935Z,99367.05
2019-04-07T17:03:15.450Z,99362.03
2019-04-07T17:05:48.588Z,99359.34
2019-04-07T17:08:22.474Z,99366.22
2019-04-07T17:10:55.852Z,99356.29
2019-04-07T17:13:38.149Z,99355.88
2019-04-07T17:16:05.815Z,99369.73
2019-04-07T17:18:41.186Z,99371.10
2019-04-07T17:21:16.077Z,99376.02
2019-04-07T17:23:48.564Z,99376.72
2019-04-07T17:26:23.360Z,99390.13
2019-04-07T17:28:56.982Z,99381.36
2019-04-07T17:31:31.162Z,99383.63
2019-04-07T17:34:07.374Z,99384.63
2019-04-07T17:36:39.252Z,99387.25
2019-04-07T17:39:28.651Z,99395.08
2019-04-07T17:42:01.517Z,99396.69
2019-04-07T17:44:59.330Z,99401.88
2019-04-07T17:47:39.212Z,99397.27
2019-04-07T17:50:33.755Z,99397.78
2019-04-07T17:53:26.502Z,99392.66
2019-04-07T17:56:20.918Z,99398.73
2019-04-07T17:59:28.188Z,99395.62
2019-04-07T18:02:34.918Z,99395.08
2019-04-07T18:05:24.254Z,99396.66
2019-04-07T18:08:09.202Z,99397.38
2019-04-07T18:11:07.599Z,99390.65
2019-04-07T18:13:59.693Z,99400.63
2019-04-07T18:16:49.317Z,99393.38
2019-04-07T18:19:38.862Z,99402.71
2019-04-07T18:22:42.319Z,99405.59
2019-04-07T18:25:34.064Z,99404.79
2019-04-07T18:28:23.019Z,99400.38
2019-04-07T18:31:05.344Z,99404.63
2019-04-07T18:33:56.992Z,99412.38
2019-04-07T18:37:01.986Z,99411.78
2019-04-07T18:40:03.155Z,99405.59
2019-04-07T18:42:55.751Z,99412.80
2019-04-07T18:45:54.809Z,99411.62
2019-04-07T18:48:59.168Z,99413.33
2019-04-07T18:51:50.629Z,99405.94
2019-04-07T18:54:37.697Z,99402.80
2019-04-07T18:57:48.820Z,99400.23
2019-04-07T19:00:38.109Z,99393.03
2019-04-07T19:03:29.684Z,99395.98
2019-04-07T19:06:14.824Z,99388.84
2019-04-07T19:09:14.180Z,99390.98
2019-04-07T19:12:22.720Z,99389.99
2019-04-07T19:15:10.535Z,99376.79
2019-04-07T19:17:58.926Z,99386.11
2019-04-07T19:20:48.893Z,99381.98
2019-04-07T19:23:59.125Z,99385.15
2019-04-07T19:27:11.857Z,99394.09
2019-04-07T19:30:07.082Z,99400.31
2019-04-07T19:33:16.535Z,99409.41
2019-04-07T19:36:06.220Z,99403.64
2019-04-07T19:39:04.818Z,99401.66
2019-04-07T19:42:08.788Z,99394.89
2019-04-07T19:45:04.622Z,99389.22
2019-04-07T19:47:58.183Z,99387.02
2019-04-07T19:51:01.227Z,99400.15
2019-04-07T19:54:04.423Z,99400.53
2019-04-07T19:56:44.148Z,99407.99
2019-04-07T19:59:43.073Z,99405.75
2019-04-07T20:02:42.532Z,99406.11
2019-04-07T20:05:27.953Z,99405.75
2019-04-07T20:08:20.674Z,99406.45
2019-04-07T20:11:16.189Z,99415.65
2019-04-07T20:14:28.431Z,99409.08
2019-04-07T20:17:24.447Z,99414.34
2019-04-07T20:20:21.672Z,99413.89
2019-04-07T20:23:22.915Z,99420.55
2019-04-07T20:26:27.059Z,99419.14
2019-04-07T20:29:27.989Z,99405.08
2019-04-07T20:32:25.193Z,99424.69
2019-04-07T20:35:24.791Z,99429.08
2019-04-07T20:38:27.262Z,99418.85
2019-04-07T20:41:19.585Z,99426.51
2019-04-07T20:44:11.687Z,99427.70
2019-04-07T20:47:14.241Z,99434.80
2019-04-07T20:50:01.339Z,99434.77
2019-04-07T20:53:21.772Z,99428.55
2019-04-07T20:56:18.648Z,99438.11
2019-04-07T20:59:18.850Z,99426.73
2019-04-07T21:02:29.361Z,99431.34
2019-04-07T21:05:38.989Z,99433.34
2019-04-07T21:08:34.200Z,99426.77
2019-04-07T21:11:29.071Z,99432.78
2019-04-07T21:14:15.967Z,99431.73
2019-04-07T21:17:10.804Z,99423.38
2019-04-07T21:19:56.273Z,99428.02
2019-04-07T21:22:54.006Z,99415.59
2019-04-07T21:25:47.936Z,99431.19
2019-04-07T21:28:37.812Z,99419.63
2019-04-07T21:31:27.031Z,99424.05
2019-04-07T21:34:29.572Z,99425.84
2019-04-07T21:37:13.908Z,99433.72
2019-04-07T21:40:05.385Z,99423.05
2019-04-07T21:42:52.087Z,99423.84
2019-04-07T21:45:56.522Z,99424.83
2019-04-07T21:48:47.477Z,99417.84
2019-04-07T21:51:39.872Z,99410.96
2019-04-07T21:54:37.277Z,99415.75
2019-04-07T21:57:29.179Z,99409.67
2019-04-07T22:00:32.879Z,99404.48
2019-04-07T22:03:29.013Z,99415.33
2019-04-07T22:06:23.195Z,99409.33
2019-04-07T22:09:03.100Z,99416.57
2019-04-07T22:11:36.765Z,99414.66
2019-04-07T22:14:10.426Z,99417.60
2019-04-07T22:16:43.455Z,99430.73
2019-04-07T22:19:16.674Z,99441.84
2019-04-07T22:21:53.270Z,99441.11
2019-04-07T22:24:23.144Z,99442.70
2019-04-07T22:26:55.477Z,99441.23
2019-04-07T22:29:27.403Z,99453.88
2019-04-07T22:31:59.825Z,99453.32
2019-04-07T22:34:32.655Z,99457.22
2019-04-07T22:37:06.853Z,99464.45
2019-04-07T22:39:39.716Z,99476.89
2019-04-07T22:42:15.196Z,99474.95
2019-04-07T22:44:47.375Z,99476.38
2019-04-07T22:47:21.124Z,99476.81
2019-04-07T22:49:55.302Z,99479.36
2019-04-07T22:52:36.230Z,99486.28
2019-04-07T22:55:09.783Z,99481.03
2019-04-07T22:57:42.993Z,99489.51
2019-04-07T23:00:19.749Z,99497.94
2019-04-07T23:02:54.126Z,99503.34
2019-04-07T23:05:26.430Z,99506.56
2019-04-07T23:08:04.058Z,99508.31
2019-04-07T23:10:41.004Z,99513.36
2019-04-07T23:13:15.396Z,99519.50
2019-04-07T23:15:50.276Z,99525.45
2019-04-07T23:18:22.948Z,99533.66
2019-04-07T23:20:55.634Z,99535.24
2019-04-07T23:23:28.194Z,99538.98
2019-04-07T23:26:00.652Z,99538.35
2019-04-07T23:28:32.739Z,99545.20
2019-04-07T23:31:05.708Z,99543.13
2019-04-07T23:33:38.256Z,99547.77
2019-04-07T23:36:11.546Z,99549.48
2019-04-07T23:38:43.708Z,99551.84
2019-04-07T23:41:15.930Z,99555.22
2019-04-07T23:43:47.941Z,99557.64
2019-04-07T23:46:24.735Z,99552.83
2019-04-07T23:48:54.792Z,99553.23
2019-04-07T23:51:28.723Z,99554.73
2019-04-07T23:54:10.906Z,99550.92
2019-04-07T23:56:44.801Z,99552.59
2019-04-07T23:59:16.998Z,99551.84
